onehippo.com alexa rank chart, onehippo.com alexa rank daily changes

onehippo.com alexa rank chart, onehippo.com alexa rank daily changes

onehippo.com
Actual rank:
267 252

RANK HISTORY

Date Rank Diff
2017/03/29 267 252 +4 435
2017/03/28 262 817 +4 559
2017/03/27 258 258 -6 108
2017/03/26 264 366 -1 232
2017/03/25 265 598 +13 261
2017/03/24 252 337 +18 905
2017/03/23 233 432 -709
2017/03/22 234 141 -3 876
2017/03/21 238 017 -443
2017/03/20 238 460 +1 657
2017/03/19 236 803 -2 383
2017/03/18 239 186 -13 994
2017/03/17 253 180 -1 005
2017/03/16 254 185 +3 432
2017/03/15 250 753 +4 780
2017/03/14 245 973 -1 401
2017/03/13 247 374 +3 588
2017/03/12 243 786 +2 088
2017/03/11 241 698 -10 731
2017/03/10 252 429 -3 439
2017/03/09 255 868 -2 789
2017/03/08 258 657 +12 032
2017/03/07 246 625 -7 822
2017/03/06 254 447 +105
2017/03/01 254 342 +3 758
2017/02/28 250 584 +2 133
2017/02/27 248 451 -352
2017/02/26 248 803 -2 864
2017/02/25 251 667 -9 010
2017/02/24 260 677 -20 387
2017/02/23 281 064 +7 290
2017/02/22 273 774 +5 094
2017/02/21 268 680 +1 651
2017/02/20 267 029 -932
2017/02/19 267 961 +5 214
2017/02/18 262 747 +6 459
2017/02/17 256 288 +5 308
2017/02/16 250 980 -9 794
2017/02/15 260 774 -1 363
2017/02/14 262 137 +5 640
2017/02/13 256 497 -2 178
2017/02/12 258 675 +3 730
2017/02/11 254 945 +6 212
2017/02/10 248 733 +209
2017/02/09 248 524 +8 419
2017/02/08 240 105 -3 728
2017/02/07 243 833 -4 452
2017/02/06 248 285 -5 393
2017/02/05 253 678 -3 776
2017/02/04 257 454 -7 843
2017/02/03 265 297 +3 528
2017/02/02 261 769 +1 868
2017/02/01 259 901 -22 631
2017/01/31 282 532 +8 700
2017/01/30 273 832 +10 991
2017/01/29 262 841 -4 025
2017/01/28 266 866

WIDGET FOR YOUR SITE

DOMAINS WITH THE NEAREST RANK

Domain Rank
cedengineering.com 267 247
bombayshirts.com 267 248
vegasexperience.com 267 249
civilwarineurope.com 267 250
ciitwah.edu.pk 267 251
onehippo.com 267 252
testgratis.net 267 253
e-nyelv.hu 267 254
sumikai.com 267 255
lread.net 267 256
fightaging.org 267 257

DOMAINS WITH THE NEAREST RANK BY TLD .com

Domain Rank
mathatube.com 267 246
cedengineering.com 267 247
bombayshirts.com 267 248
vegasexperience.com 267 249
civilwarineurope.com 267 250
onehippo.com 267 252
sumikai.com 267 255
colorkinetics.com 267 258
brickmarketing.com 267 259
alcateiainvestimentos.com 267 260
trendingpop.com 267 263